createdAt,value
2022-08-18T00:01:55.418Z,96.01
2022-08-18T00:04:35.467Z,95.21
2022-08-18T00:07:02.810Z,94.45
2022-08-18T00:09:32.425Z,94.89
2022-08-18T00:12:03.098Z,95.11
2022-08-18T00:14:30.125Z,95.88
2022-08-18T00:16:56.923Z,94.64
2022-08-18T00:19:24.759Z,94.38
2022-08-18T00:22:16.057Z,93.90
2022-08-18T00:24:47.449Z,93.78
2022-08-18T00:27:17.208Z,94.09
2022-08-18T00:29:43.754Z,93.84
2022-08-18T00:32:15.601Z,94.01
2022-08-18T00:34:42.211Z,93.55
2022-08-18T00:37:08.988Z,95.38
2022-08-18T00:39:37.062Z,96.27
2022-08-18T00:42:43.839Z,95.71
2022-08-18T00:45:14.340Z,95.76
2022-08-18T00:47:42.478Z,95.95
2022-08-18T00:50:15.018Z,95.47
2022-08-18T00:52:46.464Z,94.37
2022-08-18T00:55:13.023Z,93.55
2022-08-18T00:57:40.410Z,95.00
2022-08-18T01:00:11.676Z,96.09
2022-08-18T01:02:42.723Z,96.00
2022-08-18T01:05:14.386Z,95.59
2022-08-18T01:07:47.907Z,96.24
2022-08-18T01:10:17.434Z,96.93
2022-08-18T01:12:49.130Z,99.03
2022-08-18T01:15:27.808Z,98.41
2022-08-18T01:18:21.519Z,98.96
2022-08-18T01:21:14.445Z,99.81
2022-08-18T01:23:41.223Z,100.00
2022-08-18T01:26:09.280Z,100.00
2022-08-18T01:28:39.731Z,99.52
2022-08-18T01:31:09.099Z,98.95
2022-08-18T01:33:38.069Z,98.58
2022-08-18T01:36:17.813Z,98.76
2022-08-18T01:38:45.977Z,98.07
2022-08-18T01:41:27.054Z,98.16
2022-08-18T01:43:58.559Z,98.82
2022-08-18T01:46:25.803Z,98.60
2022-08-18T01:48:52.490Z,98.19
2022-08-18T01:51:20.513Z,97.12
2022-08-18T01:54:05.432Z,96.37
2022-08-18T01:56:31.957Z,96.38
2022-08-18T01:58:58.447Z,95.96
2022-08-18T02:01:33.023Z,95.94
2022-08-18T02:04:33.194Z,96.13
2022-08-18T02:06:54.447Z,97.32
2022-08-18T02:09:24.532Z,97.77
2022-08-18T02:11:53.113Z,97.36
2022-08-18T02:14:25.012Z,97.25
2022-08-18T02:16:53.382Z,97.29
2022-08-18T02:19:28.140Z,97.90
2022-08-18T02:21:54.663Z,97.34
2022-08-18T02:24:21.200Z,100.00
2022-08-18T02:26:47.619Z,100.00
2022-08-18T02:29:14.230Z,100.00
2022-08-18T02:31:40.839Z,100.00
2022-08-18T02:34:07.362Z,100.00
2022-08-18T02:36:33.895Z,100.00
2022-08-18T02:39:00.436Z,100.00
2022-08-18T02:41:29.782Z,100.00
2022-08-18T02:43:57.523Z,100.00
2022-08-18T02:46:24.383Z,100.00
2022-08-18T02:48:57.084Z,100.00
2022-08-18T02:51:25.918Z,100.00
2022-08-18T02:53:54.094Z,100.00
2022-08-18T02:56:40.078Z,100.00
2022-08-18T02:59:11.664Z,100.00
2022-08-18T03:01:41.946Z,100.00
2022-08-18T03:04:11.631Z,100.00
2022-08-18T03:06:39.464Z,100.00
2022-08-18T03:09:08.178Z,100.00
2022-08-18T03:11:35.840Z,100.00
2022-08-18T03:14:03.086Z,100.00
2022-08-18T03:16:32.747Z,100.00
2022-08-18T03:19:01.817Z,100.00
2022-08-18T03:21:31.045Z,100.00
2022-08-18T03:24:01.572Z,100.00
2022-08-18T03:26:31.018Z,100.00
2022-08-18T03:28:59.983Z,100.00
2022-08-18T03:31:30.040Z,100.00
2022-08-18T03:33:59.394Z,100.00
2022-08-18T03:36:29.316Z,100.00
2022-08-18T03:38:55.933Z,100.00
2022-08-18T03:41:58.798Z,100.00
2022-08-18T03:44:12.697Z,100.00
2022-08-18T03:46:42.186Z,100.00
2022-08-18T03:49:09.467Z,100.00
2022-08-18T03:51:36.845Z,100.00
2022-08-18T03:54:04.996Z,100.00
2022-08-18T03:56:35.548Z,100.00
2022-08-18T03:59:06.041Z,100.00
2022-08-18T04:01:39.343Z,100.00
2022-08-18T04:04:08.122Z,100.00
2022-08-18T04:06:42.342Z,100.00
2022-08-18T04:09:13.706Z,100.00
2022-08-18T04:11:44.527Z,100.00
2022-08-18T04:14:20.706Z,100.00
2022-08-18T04:16:48.942Z,100.00
2022-08-18T04:19:27.367Z,100.00
2022-08-18T04:21:55.962Z,100.00
2022-08-18T04:24:22.811Z,100.00
2022-08-18T04:26:50.231Z,100.00
2022-08-18T04:29:21.297Z,100.00
2022-08-18T04:31:50.190Z,100.00
2022-08-18T04:34:17.950Z,100.00
2022-08-18T04:36:44.532Z,100.00
2022-08-18T04:39:12.867Z,100.00
2022-08-18T04:41:42.843Z,100.00
2022-08-18T04:44:11.342Z,100.00
2022-08-18T04:46:42.109Z,100.00
2022-08-18T04:49:10.573Z,100.00
2022-08-18T04:52:22.611Z,100.00
2022-08-18T04:54:29.129Z,100.00
2022-08-18T04:56:55.770Z,100.00
2022-08-18T04:59:22.703Z,100.00
2022-08-18T05:01:49.165Z,100.00
2022-08-18T05:04:17.576Z,100.00
2022-08-18T05:06:45.284Z,100.00
2022-08-18T05:09:16.518Z,100.00
2022-08-18T05:11:47.563Z,100.00
2022-08-18T05:14:14.720Z,100.00
2022-08-18T05:16:48.512Z,100.00
2022-08-18T05:19:21.962Z,100.00
2022-08-18T05:21:51.831Z,100.00
2022-08-18T05:24:21.405Z,100.00
2022-08-18T05:26:49.001Z,100.00
2022-08-18T05:29:18.711Z,100.00
2022-08-18T05:31:47.186Z,100.00
2022-08-18T05:34:13.970Z,100.00
2022-08-18T05:36:49.235Z,100.00
2022-08-18T05:39:23.975Z,100.00
2022-08-18T05:42:28.746Z,100.00
2022-08-18T05:44:56.377Z,100.00
2022-08-18T05:47:24.616Z,100.00
2022-08-18T05:49:52.822Z,100.00
2022-08-18T05:52:25.851Z,100.00
2022-08-18T05:55:14.965Z,100.00
2022-08-18T05:57:55.917Z,100.00
2022-08-18T06:00:24.154Z,100.00
2022-08-18T06:03:15.729Z,100.00
2022-08-18T06:05:52.739Z,100.00
2022-08-18T06:08:24.017Z,100.00
2022-08-18T06:11:22.410Z,100.00
2022-08-18T06:14:03.072Z,100.00
2022-08-18T06:20:14.082Z,100.00
2022-08-18T06:23:34.737Z,100.00
2022-08-18T06:26:49.188Z,100.00
2022-08-18T06:29:36.958Z,100.00
2022-08-18T06:32:10.219Z,100.00
2022-08-18T06:34:55.733Z,100.00
2022-08-18T06:37:32.729Z,100.00
2022-08-18T06:40:02.639Z,100.00
2022-08-18T06:42:35.662Z,100.00
2022-08-18T06:45:13.090Z,100.00
2022-08-18T06:47:43.028Z,100.00
2022-08-18T06:50:27.163Z,100.00
2022-08-18T06:52:58.967Z,100.00
2022-08-18T06:55:56.696Z,100.00
2022-08-18T06:58:35.214Z,100.00
2022-08-18T07:01:17.111Z,100.00
2022-08-18T07:03:57.403Z,100.00
2022-08-18T07:06:31.969Z,100.00
2022-08-18T07:09:20.291Z,100.00
2022-08-18T07:12:04.938Z,100.00
2022-08-18T07:14:33.360Z,100.00
2022-08-18T07:17:17.073Z,100.00
2022-08-18T07:19:44.388Z,100.00
2022-08-18T07:22:17.964Z,100.00
2022-08-18T07:24:49.809Z,100.00
2022-08-18T07:27:23.729Z,100.00
2022-08-18T07:30:11.942Z,100.00
2022-08-18T07:32:51.789Z,100.00
2022-08-18T07:35:26.572Z,100.00
2022-08-18T07:41:30.535Z,100.00
2022-08-18T07:44:13.874Z,100.00
2022-08-18T07:47:06.924Z,100.00
2022-08-18T07:49:59.746Z,100.00
2022-08-18T07:53:08.184Z,100.00
2022-08-18T07:55:58.294Z,100.00
2022-08-18T07:58:35.276Z,100.00
2022-08-18T08:01:45.296Z,100.00
2022-08-18T08:04:55.029Z,100.00
2022-08-18T08:07:30.814Z,100.00
2022-08-18T08:10:22.928Z,100.00
2022-08-18T08:13:51.725Z,100.00
2022-08-18T08:16:49.714Z,100.00
2022-08-18T08:19:58.863Z,100.00
2022-08-18T08:23:01.046Z,100.00
2022-08-18T08:29:23.725Z,99.09
2022-08-18T08:32:17.703Z,98.61
2022-08-18T08:34:52.567Z,100.00
2022-08-18T08:37:31.043Z,99.49
2022-08-18T08:40:15.583Z,99.46
2022-08-18T08:43:03.047Z,98.95
2022-08-18T08:45:32.765Z,99.13
2022-08-18T08:48:09.474Z,100.00
2022-08-18T08:50:48.767Z,98.83
2022-08-18T08:53:21.343Z,98.62
2022-08-18T08:55:53.552Z,97.67
2022-08-18T08:58:59.389Z,96.02
2022-08-18T09:01:34.705Z,99.35
2022-08-18T09:04:10.759Z,96.79
2022-08-18T09:07:01.628Z,95.40
2022-08-18T09:09:49.413Z,96.50
2022-08-18T09:12:34.298Z,95.97
2022-08-18T09:15:58.149Z,95.25
2022-08-18T09:18:56.464Z,97.59
2022-08-18T09:21:46.145Z,96.12
2022-08-18T09:24:44.903Z,96.60
2022-08-18T09:27:14.763Z,95.53
2022-08-18T09:29:53.304Z,95.66
2022-08-18T09:32:23.887Z,95.67
2022-08-18T09:35:24.596Z,94.47
2022-08-18T09:38:40.205Z,94.33
2022-08-18T09:41:32.897Z,94.27
2022-08-18T09:44:21.707Z,94.46
2022-08-18T09:46:56.051Z,94.33
2022-08-18T09:49:27.218Z,93.85
2022-08-18T09:52:24.314Z,91.91
2022-08-18T09:55:28.925Z,92.10
2022-08-18T09:58:30.989Z,94.16
2022-08-18T10:01:41.592Z,95.54
2022-08-18T10:04:14.447Z,94.63
2022-08-18T10:06:48.360Z,92.90
2022-08-18T10:09:36.273Z,91.57
2022-08-18T10:15:14.678Z,91.22
2022-08-18T10:18:05.669Z,89.48
2022-08-18T10:20:59.261Z,90.91
2022-08-18T10:24:02.881Z,89.69
2022-08-18T10:26:55.367Z,90.31
2022-08-18T10:29:29.074Z,89.37
2022-08-18T10:32:01.573Z,90.17
2022-08-18T10:34:52.140Z,89.22
2022-08-18T10:37:36.117Z,88.71
2022-08-18T10:40:16.140Z,88.09
2022-08-18T10:42:59.237Z,87.06
2022-08-18T10:45:30.932Z,86.26
2022-08-18T10:48:16.860Z,85.99
2022-08-18T10:50:50.201Z,86.86
2022-08-18T10:56:34.290Z,83.73
2022-08-18T10:59:28.621Z,85.44
2022-08-18T11:02:40.220Z,84.71
2022-08-18T11:05:11.624Z,84.72
2022-08-18T11:07:44.725Z,86.19
2022-08-18T11:11:27.641Z,82.10
2022-08-18T11:14:31.815Z,83.00
2022-08-18T11:17:16.083Z,82.92
2022-08-18T11:19:44.947Z,83.16
2022-08-18T11:22:30.344Z,82.73
2022-08-18T11:27:49.921Z,77.21
2022-08-18T11:30:18.750Z,78.14
2022-08-18T11:32:51.981Z,80.26
2022-08-18T11:35:27.624Z,80.33
2022-08-18T11:38:03.793Z,76.50
2022-08-18T11:43:41.102Z,77.36
2022-08-18T11:46:27.909Z,77.56
2022-08-18T11:48:57.264Z,77.59
2022-08-18T11:51:28.402Z,79.38
2022-08-18T11:53:59.423Z,78.21
2022-08-18T11:59:52.898Z,78.29
2022-08-18T12:02:21.224Z,78.85
2022-08-18T12:04:54.989Z,79.16
2022-08-18T12:07:35.062Z,77.21
2022-08-18T12:10:26.584Z,75.93
2022-08-18T12:12:57.521Z,74.70
2022-08-18T12:15:43.686Z,76.44
2022-08-18T12:18:26.041Z,74.91
2022-08-18T12:20:59.520Z,76.19
2022-08-18T12:23:39.144Z,74.83
2022-08-18T12:29:02.903Z,71.69
2022-08-18T12:31:42.781Z,73.92
2022-08-18T12:34:16.000Z,75.41
2022-08-18T12:36:44.384Z,74.84
2022-08-18T12:39:10.932Z,74.38
2022-08-18T12:41:37.724Z,74.19
2022-08-18T12:44:04.504Z,71.24
2022-08-18T12:46:40.276Z,74.35
2022-08-18T12:49:18.933Z,73.91
2022-08-18T12:51:50.179Z,73.06
2022-08-18T12:54:17.974Z,70.80
2022-08-18T12:56:48.229Z,71.74
2022-08-18T12:59:16.062Z,72.49
2022-08-18T13:01:44.359Z,70.50
2022-08-18T13:04:13.821Z,65.13
2022-08-18T13:07:00.663Z,67.29
2022-08-18T13:09:42.983Z,66.70
2022-08-18T13:12:18.874Z,63.70
2022-08-18T13:14:46.701Z,62.20
2022-08-18T13:17:30.272Z,62.42
2022-08-18T13:20:03.606Z,62.88
2022-08-18T13:22:32.430Z,62.79
2022-08-18T13:25:05.416Z,63.98
2022-08-18T13:27:33.562Z,64.18
2022-08-18T13:30:30.269Z,64.09
2022-08-18T13:32:59.036Z,61.77
2022-08-18T13:35:26.601Z,64.64
2022-08-18T13:37:56.803Z,66.13
2022-08-18T13:40:23.416Z,66.92
2022-08-18T13:42:55.916Z,66.57
2022-08-18T13:45:25.632Z,66.31
2022-08-18T13:47:52.589Z,64.63
2022-08-18T13:50:20.886Z,61.60
2022-08-18T13:53:00.829Z,64.21
2022-08-18T13:55:28.990Z,62.53
2022-08-18T13:57:55.941Z,62.51
2022-08-18T14:00:29.548Z,63.70
2022-08-18T14:02:58.829Z,63.92
2022-08-18T14:05:51.031Z,64.18
2022-08-18T14:08:12.480Z,64.86
2022-08-18T14:10:50.708Z,62.52
2022-08-18T14:13:20.997Z,61.13
2022-08-18T14:15:54.952Z,57.43
2022-08-18T14:18:35.762Z,56.28
2022-08-18T14:21:27.672Z,55.79
2022-08-18T14:24:16.629Z,60.57
2022-08-18T14:26:50.138Z,59.03
2022-08-18T14:29:46.471Z,54.96
2022-08-18T14:32:11.926Z,50.65
2022-08-18T14:34:51.334Z,53.78
2022-08-18T14:37:34.307Z,50.90
2022-08-18T14:40:09.810Z,54.89
2022-08-18T14:45:35.486Z,55.83
2022-08-18T14:51:31.458Z,56.10
2022-08-18T14:54:46.300Z,55.78
2022-08-18T14:57:24.398Z,55.26
2022-08-18T14:59:57.712Z,58.43
2022-08-18T15:02:29.778Z,55.45
2022-08-18T15:05:03.011Z,51.12
2022-08-18T15:07:49.023Z,51.06
2022-08-18T15:10:23.565Z,49.76
2022-08-18T15:13:16.265Z,52.47
2022-08-18T15:15:54.417Z,56.31
2022-08-18T15:18:26.600Z,53.09
2022-08-18T15:21:35.732Z,54.70
2022-08-18T15:24:28.082Z,56.78
2022-08-18T15:27:19.588Z,54.76
2022-08-18T15:31:49.631Z,55.84
2022-08-18T15:34:31.305Z,56.03
2022-08-18T15:37:14.543Z,53.09
2022-08-18T15:39:56.333Z,54.79
2022-08-18T15:43:06.415Z,54.87
2022-08-18T15:45:57.844Z,55.31
2022-08-18T15:48:31.609Z,55.25
2022-08-18T15:51:17.034Z,54.65
2022-08-18T15:54:03.088Z,54.45
2022-08-18T15:56:36.856Z,55.90
2022-08-18T15:59:12.734Z,56.09
2022-08-18T16:01:57.697Z,54.16
2022-08-18T16:04:34.348Z,55.20
2022-08-18T16:07:13.627Z,56.96
2022-08-18T16:10:03.745Z,55.43
2022-08-18T16:12:48.253Z,54.51
2022-08-18T16:18:40.428Z,58.13
2022-08-18T16:21:33.629Z,55.66
2022-08-18T16:24:38.249Z,56.25
2022-08-18T16:27:40.941Z,57.59
2022-08-18T16:30:28.329Z,59.03
2022-08-18T16:32:58.657Z,60.34
2022-08-18T16:35:31.747Z,59.16
2022-08-18T16:38:10.552Z,59.28
2022-08-18T16:40:38.588Z,58.80
2022-08-18T16:43:09.106Z,59.17
2022-08-18T16:45:39.689Z,59.81
2022-08-18T16:48:08.488Z,59.90
2022-08-18T16:50:44.938Z,60.37
2022-08-18T16:53:16.446Z,60.15
2022-08-18T16:56:05.987Z,60.46
2022-08-18T16:59:05.458Z,60.45
2022-08-18T17:04:53.545Z,61.34
2022-08-18T17:07:24.492Z,61.11
2022-08-18T17:09:53.056Z,61.85
2022-08-18T17:12:27.382Z,60.86
2022-08-18T17:14:56.582Z,61.83
2022-08-18T17:17:27.388Z,62.44
2022-08-18T17:19:59.431Z,62.25
2022-08-18T17:22:36.481Z,64.38
2022-08-18T17:25:08.515Z,64.65
2022-08-18T17:27:45.955Z,65.27
2022-08-18T17:30:28.252Z,64.67
2022-08-18T17:33:03.015Z,64.42
2022-08-18T17:35:43.800Z,63.84
2022-08-18T17:39:02.119Z,64.86
2022-08-18T17:41:54.271Z,64.84
2022-08-18T17:44:31.311Z,64.04
2022-08-18T17:47:03.373Z,65.56
2022-08-18T17:50:27.175Z,62.89
2022-08-18T17:52:52.639Z,63.83
2022-08-18T17:55:34.935Z,64.15
2022-08-18T17:58:15.469Z,65.47
2022-08-18T18:00:52.789Z,64.78
2022-08-18T18:03:27.201Z,64.94
2022-08-18T18:06:09.791Z,65.52
2022-08-18T18:09:00.531Z,63.99
2022-08-18T18:11:41.266Z,63.88
2022-08-18T18:14:26.242Z,63.76
2022-08-18T18:17:07.104Z,63.86
2022-08-18T18:19:34.418Z,65.40
2022-08-18T18:22:19.808Z,65.14
2022-08-18T18:24:57.854Z,63.52
2022-08-18T18:27:36.928Z,64.12
2022-08-18T18:30:08.006Z,63.62
2022-08-18T18:32:48.974Z,64.45
2022-08-18T18:35:33.953Z,64.52
2022-08-18T18:38:05.005Z,63.63
2022-08-18T18:40:36.321Z,63.84
2022-08-18T18:43:35.730Z,64.73
2022-08-18T18:46:23.300Z,65.95
2022-08-18T18:49:01.327Z,67.26
2022-08-18T18:51:36.034Z,67.52
2022-08-18T18:54:49.784Z,66.80
2022-08-18T18:57:39.973Z,66.57
2022-08-18T19:00:20.688Z,66.89
2022-08-18T19:02:47.333Z,67.28
2022-08-18T19:05:35.259Z,67.02
2022-08-18T19:08:19.960Z,69.41
2022-08-18T19:11:02.410Z,70.01
2022-08-18T19:13:36.477Z,70.35
2022-08-18T19:16:23.655Z,69.27
2022-08-18T19:19:38.306Z,68.47
2022-08-18T19:22:04.396Z,68.39
2022-08-18T19:24:40.523Z,68.37
2022-08-18T19:27:17.332Z,67.84
2022-08-18T19:29:52.188Z,68.55
2022-08-18T19:32:24.169Z,68.39
2022-08-18T19:34:55.605Z,69.50
2022-08-18T19:37:44.714Z,69.90
2022-08-18T19:40:21.442Z,71.23
2022-08-18T19:42:52.965Z,70.74
2022-08-18T19:45:31.651Z,70.19
2022-08-18T19:48:28.412Z,71.02
2022-08-18T19:51:05.458Z,70.69
2022-08-18T19:53:34.835Z,70.46
2022-08-18T19:56:49.346Z,70.18
2022-08-18T19:59:18.326Z,70.37
2022-08-18T20:01:58.061Z,70.28
2022-08-18T20:05:00.222Z,70.31
2022-08-18T20:07:55.869Z,71.26
2022-08-18T20:10:40.311Z,72.86
2022-08-18T20:13:26.108Z,74.28
2022-08-18T20:15:59.018Z,73.89
2022-08-18T20:18:35.326Z,74.78
2022-08-18T20:21:14.333Z,74.04
2022-08-18T20:23:59.248Z,74.76
2022-08-18T20:26:38.197Z,74.35
2022-08-18T20:29:13.115Z,74.53
2022-08-18T20:31:51.260Z,75.21
2022-08-18T20:34:22.890Z,75.92
2022-08-18T20:36:51.731Z,76.10
2022-08-18T20:39:45.224Z,76.09
2022-08-18T20:42:21.059Z,77.79
2022-08-18T20:44:50.720Z,78.27
2022-08-18T20:47:29.116Z,78.63
2022-08-18T20:50:16.951Z,77.96
2022-08-18T20:52:46.553Z,78.08
2022-08-18T20:55:26.496Z,77.90
2022-08-18T20:58:05.311Z,77.88
2022-08-18T21:00:37.328Z,78.42
2022-08-18T21:03:11.783Z,78.51
2022-08-18T21:05:41.206Z,78.33
2022-08-18T21:08:14.160Z,78.29
2022-08-18T21:11:03.013Z,78.03
2022-08-18T21:13:41.616Z,77.87
2022-08-18T21:16:10.308Z,80.45
2022-08-18T21:18:37.256Z,80.11
2022-08-18T21:21:11.314Z,79.51
2022-08-18T21:23:41.301Z,79.29
2022-08-18T21:26:16.278Z,79.11
2022-08-18T21:28:48.809Z,79.58
2022-08-18T21:31:43.875Z,79.67
2022-08-18T21:34:35.785Z,79.54
2022-08-18T21:37:08.361Z,79.87
2022-08-18T21:39:45.876Z,79.14
2022-08-18T21:42:18.062Z,79.19
2022-08-18T21:44:47.058Z,80.52
2022-08-18T21:47:23.776Z,82.19
2022-08-18T21:50:09.618Z,82.81
2022-08-18T21:52:50.407Z,83.95
2022-08-18T21:55:40.075Z,83.39
2022-08-18T21:58:18.540Z,82.65
2022-08-18T22:01:03.808Z,81.98
2022-08-18T22:03:31.393Z,81.67
2022-08-18T22:06:03.456Z,81.47
2022-08-18T22:08:33.735Z,81.04
2022-08-18T22:12:01.138Z,81.45
2022-08-18T22:14:54.486Z,82.70
2022-08-18T22:17:41.347Z,84.26
2022-08-18T22:20:35.781Z,84.31
2022-08-18T22:23:38.034Z,83.89
2022-08-18T22:26:17.293Z,83.95
2022-08-18T22:29:20.842Z,83.98
2022-08-18T22:31:50.347Z,83.91
2022-08-18T22:34:27.873Z,86.92
2022-08-18T22:36:59.334Z,90.23
2022-08-18T22:39:32.136Z,91.31
2022-08-18T22:41:58.965Z,90.06
2022-08-18T22:44:26.721Z,91.64
2022-08-18T22:46:53.624Z,89.76
2022-08-18T22:49:21.026Z,89.10
2022-08-18T22:51:49.275Z,89.29
2022-08-18T22:54:16.913Z,88.55
2022-08-18T22:56:56.416Z,88.50
2022-08-18T22:59:26.799Z,88.34
2022-08-18T23:01:54.561Z,88.21
2022-08-18T23:04:25.341Z,88.45
2022-08-18T23:06:54.032Z,87.47
2022-08-18T23:09:30.089Z,88.01
2022-08-18T23:12:01.115Z,89.12
2022-08-18T23:14:28.886Z,89.38
2022-08-18T23:16:55.401Z,94.29
2022-08-18T23:19:22.022Z,92.75
2022-08-18T23:21:49.383Z,92.38
2022-08-18T23:24:17.658Z,92.02
2022-08-18T23:26:45.486Z,91.05
2022-08-18T23:29:13.974Z,90.46
2022-08-18T23:31:43.565Z,91.64
2022-08-18T23:34:13.134Z,92.37
2022-08-18T23:36:45.097Z,92.53
2022-08-18T23:39:12.914Z,92.45
2022-08-18T23:41:39.428Z,93.58
2022-08-18T23:44:06.612Z,92.10
2022-08-18T23:46:34.262Z,92.02
2022-08-18T23:49:03.978Z,92.38
2022-08-18T23:51:44.189Z,92.54
2022-08-18T23:54:15.178Z,92.91
2022-08-18T23:56:41.737Z,93.08
2022-08-18T23:59:08.510Z,92.76
